Airfield :
LOGIN :

Register | Disclaimer

   EN    FR    IT 

 










Legend :    VFR   Marginal VFR   IFR   Intensive IFR   Very Intensive IFR
Visi :
Ceiling :
>= 8 km
>= 3000ft
5 to 8 km
1000 to 3000 ft
1500m to 5 km
500 to 1000 ft
800 to 1500m
200 to 500 ft
< 800m
< 200 ft
Symbols :   Thunderstorms  Fog  Heavy snow  Heavy precipitations  Wind > 20 kt
SIGMETs :     Misc.  Thunderstorms  Icing  Turbulence  Mountain Waves  Volcanic Ashes







- Airport Elevation : 302 ft
- IATA code : CGN


EDDK - Cologne Bonn

CURRENT METAR :
  • 240220Z VRB02KT 6000 FEW011 OVC040 06/05 Q1028 TEMPO BKN011

EXPIRED METARs :
  • 240150Z 14002KT 6000 SCT011 OVC037 06/05 Q1028 TEMPO BKN011
  • 240120Z 06001KT 6000 FEW016 BKN037 06/05 Q1028 TEMPO 4000 BR
  • 240050Z 03001KT 6000 BKN035 06/05 Q1028 TEMPO 4000 BR
  • 240020Z 06002KT 7000 BKN036 07/05 Q1029 TEMPO 4000 BR
  • 232350Z 14003KT 6000 BKN037 07/05 Q1029 TEMPO 4000 BR

TAF TAF EDDK
Valid from the 24 at 00:00 until the 25 at 06:00 UTC


232300Z 2400/2506 VRB03KT 9999 BKN035
TEMPO 2400/2409 2500 -DZ BR BKN012
BECMG 2409/2412 32008KT
No reported NOTAMs for that airfield.



MET'MAP, your aeronautical weather chart ! - Copyright ORBIFLY December 2007 - Disclaimer

ORBIFLY MET'MAP TEAM :

Programming & Development : Alexandra Zaïnal
Concept & Development : Baudouin d'Aumeries
Co-Development & Prog : Marc-Olivier Méhu
Technical & hardware support : Manuel Goepfert

Contact : metmap@orbifly.com




SOURCES & CREDITS :

   NOAA